Time;durP1;ratioP1;P1;durP2;ratioP2;P2;SDS_P1;SDS_P2;PMS_P1;PMS_P2;Temp;Humidity;BMP_temperature;BMP_pressure;BME280_temperature;BME280_humidity;BME280_pressure;Samples;Min_cycle;Max_cycle;Signal;HPM_P1;HPM_P2
2024/04/08 00:01:29;;;;;;;5.32;1.58;;;;;;;20.50;38.48;98314.91;5093449;28;20035;-45
2024/04/08 00:03:54;;;;;;;8.95;1.92;;;;;;;20.44;38.98;98321.28;5092127;28;20137;-45
2024/04/08 00:06:20;;;;;;;16.65;2.22;;;;;;;20.31;39.00;98332.56;5092118;28;20089;-45
2024/04/08 00:08:46;;;;;;;13.43;2.75;;;;;;;20.22;39.21;98319.00;5091950;28;20020;-45
2024/04/08 00:11:11;;;;;;;13.57;3.10;;;;;;;20.24;39.32;98340.84;5091948;28;20032;-45
2024/04/08 00:13:37;;;;;;;9.30;1.90;;;;;;;20.41;39.32;98326.41;5093229;28;20016;-45
2024/04/08 00:16:07;;;;;;;10.52;1.98;;;;;;;20.54;38.84;98326.59;5093171;28;20016;-45
2024/04/08 00:18:33;;;;;;;8.25;2.25;;;;;;;20.60;38.68;98323.94;5093351;28;20119;-45
2024/04/08 00:21:06;;;;;;;9.70;2.08;;;;;;;20.58;39.01;98320.72;5096886;28;20557;-46
2024/04/08 00:23:32;;;;;;;9.75;2.35;;;;;;;20.49;39.07;98331.16;5093146;28;20054;-45
2024/04/08 00:26:05;;;;;;;7.00;1.63;;;;;;;20.48;39.04;98337.53;5093242;28;20035;-45
2024/04/08 00:28:33;;;;;;;8.82;2.00;;;;;;;20.54;38.86;98313.28;5091630;28;20024;-46
2024/04/08 00:31:10;;;;;;;8.73;2.10;;;;;;;20.59;38.97;98327.69;5075039;28;20503;-45
2024/04/08 00:33:37;;;;;;;9.55;2.70;;;;;;;20.49;38.74;98323.94;5093127;28;20020;-46
2024/04/08 00:36:04;;;;;;;5.20;1.80;;;;;;;20.54;39.11;98339.13;5092762;28;20020;-45
2024/04/08 00:38:30;;;;;;;7.00;2.42;;;;;;;20.63;39.28;98318.84;5091479;28;20102;-47
2024/04/08 00:40:58;;;;;;;9.57;2.45;;;;;;;20.75;38.66;98326.53;5092607;28;20036;-47
2024/04/08 00:43:24;;;;;;;7.80;2.30;;;;;;;20.67;39.34;98330.56;5092740;28;20095;-47
2024/04/08 00:45:50;;;;;;;9.63;5.03;;;;;;;20.71;39.01;98322.81;5092630;28;20111;-47
2024/04/08 00:48:17;;;;;;;11.60;2.53;;;;;;;20.82;38.87;98307.53;5092546;28;20028;-47
2024/04/08 00:50:49;;;;;;;11.40;2.30;;;;;;;21.06;38.89;98307.63;5092536;28;20059;-47
2024/04/08 00:53:15;;;;;;;7.60;2.35;;;;;;;21.25;38.42;98308.56;5092485;28;20032;-47
2024/04/08 00:55:42;;;;;;;10.40;2.38;;;;;;;21.39;38.22;98308.72;5091998;28;20028;-47
2024/04/08 00:58:08;;;;;;;8.73;2.38;;;;;;;21.36;39.32;98298.59;5090678;28;20020;-47
2024/04/08 01:00:34;;;;;;;9.80;2.70;;;;;;;21.39;39.29;98297.22;5092292;28;20394;-47
2024/04/08 01:03:03;;;;;;;16.65;7.70;;;;;;;21.47;40.04;98294.78;5091037;28;20016;-46
2024/04/08 01:05:29;;;;;;;9.50;2.90;;;;;;;21.45;38.87;98298.81;5092491;28;20020;-47
2024/04/08 01:07:55;;;;;;;15.63;8.30;;;;;;;21.45;39.93;98290.78;5090930;28;20123;-45
2024/04/08 01:10:21;;;;;;;18.08;10.70;;;;;;;21.48;40.36;98303.59;5091135;28;20538;-46
2024/04/08 01:12:47;;;;;;;17.42;14.52;;;;;;;21.62;41.12;98301.84;5092134;28;20105;-45
2024/04/08 01:15:13;;;;;;;18.10;12.90;;;;;;;21.82;39.58;98300.06;5091099;28;20027;-45
2024/04/08 01:17:38;;;;;;;16.65;4.30;;;;;;;21.90;38.88;98294.09;5092024;28;20049;-45
2024/04/08 01:20:05;;;;;;;8.38;4.03;;;;;;;21.95;39.86;98280.66;5090921;28;20032;-45
2024/04/08 01:22:32;;;;;;;64.53;38.40;;;;;;;22.08;40.08;98288.00;5087325;28;20051;-46
2024/04/08 01:25:04;;;;;;;23.90;15.57;;;;;;;22.11;39.65;98282.09;5092038;28;20032;-46
2024/04/08 01:27:30;;;;;;;52.08;33.47;;;;;;;22.09;39.58;98283.44;5092024;28;20039;-45
2024/04/08 01:29:56;;;;;;;52.78;28.15;;;;;;;22.07;40.31;98294.44;5091923;28;20035;-45
2024/04/08 01:32:21;;;;;;;15.50;9.98;;;;;;;22.16;39.12;98283.91;5090584;28;20024;-46
2024/04/08 01:34:47;;;;;;;307.42;274.02;;;;;;;22.29;38.94;98293.91;5091881;28;20028;-46
2024/04/08 01:37:13;;;;;;;166.30;149.43;;;;;;;22.37;40.16;98283.69;5091879;28;20490;-46
2024/04/08 01:39:39;;;;;;;25.75;19.65;;;;;;;22.50;38.43;98277.63;5091734;28;20478;-45
2024/04/08 01:42:05;;;;;;;16.55;7.97;;;;;;;22.47;36.95;98267.50;5091730;28;20394;-46
2024/04/08 01:44:30;;;;;;;10.95;3.60;;;;;;;22.47;36.56;98270.97;5092024;28;20028;-46
2024/04/08 01:46:56;;;;;;;8.88;3.22;;;;;;;22.28;36.35;98273.63;5090722;28;20034;-46
2024/04/08 01:49:26;;;;;;;9.68;2.85;;;;;;;22.16;36.24;98270.53;5091766;28;20036;-46
2024/04/08 01:51:52;;;;;;;15.25;4.07;;;;;;;22.14;36.77;98267.38;5091840;28;20436;-45
2024/04/08 01:54:19;;;;;;;11.32;3.38;;;;;;;22.13;36.78;98261.22;5090370;28;20024;-46
2024/04/08 01:56:46;;;;;;;19.02;6.57;;;;;;;22.19;36.50;98259.28;5090631;28;20056;-45
2024/04/08 01:59:12;;;;;;;12.10;4.47;;;;;;;22.26;36.54;98258.97;5090261;28;20111;-46
2024/04/08 02:01:38;;;;;;;8.63;3.47;;;;;;;22.19;35.92;98261.16;5090355;28;20118;-46
2024/04/08 02:04:04;;;;;;;10.40;3.58;;;;;;;22.04;35.88;98268.28;5090648;28;20020;-45
2024/04/08 02:06:29;;;;;;;8.40;2.33;;;;;;;21.87;36.35;98266.09;5091571;28;20023;-46
2024/04/08 02:08:55;;;;;;;10.68;3.75;;;;;;;21.73;36.68;98254.47;5094628;28;20024;-46
2024/04/08 02:11:21;;;;;;;11.75;4.72;;;;;;;21.63;36.19;98251.91;5095640;28;20103;-45
2024/04/08 02:13:46;;;;;;;7.63;2.35;;;;;;;21.45;36.88;98264.91;5077531;28;20021;-46
2024/04/08 02:16:14;;;;;;;15.07;4.40;;;;;;;21.18;37.95;98248.56;5095556;28;20115;-45
2024/04/08 02:18:40;;;;;;;11.00;2.13;;;;;;;20.99;37.54;98251.94;5095378;28;20085;-46
2024/04/08 02:21:11;;;;;;;8.00;2.78;;;;;;;20.97;38.02;98243.41;5095436;28;20497;-45
2024/04/08 02:23:38;;;;;;;9.40;2.35;;;;;;;21.28;37.38;98249.28;5093838;28;20040;-46
2024/04/08 02:26:03;;;;;;;14.07;3.50;;;;;;;21.32;37.43;98250.31;5095360;28;20491;-45
2024/04/08 02:28:30;;;;;;;11.70;2.47;;;;;;;21.43;36.99;98240.38;5094287;28;20032;-45
2024/04/08 02:31:03;;;;;;;5.65;1.92;;;;;;;21.53;37.25;98242.13;5094199;28;20032;-47
2024/04/08 02:33:29;;;;;;;12.93;2.10;;;;;;;21.43;37.15;98239.56;5095240;28;20062;-47
2024/04/08 02:36:03;;;;;;;11.18;2.05;;;;;;;21.18;36.80;98238.69;5095116;28;20096;-47
2024/04/08 02:38:30;;;;;;;8.68;2.78;;;;;;;20.81;37.43;98239.28;5095140;28;20031;-47
2024/04/08 02:40:56;;;;;;;10.52;2.80;;;;;;;20.67;39.04;98223.09;5094917;28;20083;-47
2024/04/08 02:43:23;;;;;;;13.77;2.75;;;;;;;20.91;37.89;98229.31;5095059;28;20099;-47
2024/04/08 02:45:49;;;;;;;11.25;2.17;;;;;;;20.78;37.52;98221.94;5094916;28;20031;-46
2024/04/08 02:48:15;;;;;;;12.77;2.75;;;;;;;20.76;38.43;98221.41;5093726;28;20233;-45
2024/04/08 02:50:42;;;;;;;8.75;2.40;;;;;;;20.87;37.53;98217.63;5093502;28;20122;-45
2024/04/08 02:53:08;;;;;;;10.27;2.55;;;;;;;20.83;37.79;98219.25;5093800;28;20055;-46
2024/04/08 02:55:33;;;;;;;11.60;2.42;;;;;;;20.73;38.23;98206.00;5094764;28;20052;-45
2024/04/08 02:57:59;;;;;;;10.52;2.35;;;;;;;20.67;38.51;98204.44;5093695;28;20497;-45
2024/04/08 03:00:25;;;;;;;11.15;3.25;;;;;;;20.76;37.92;98210.75;5076698;28;20036;-45
2024/04/08 03:02:51;;;;;;;10.50;2.80;;;;;;;20.77;37.90;98200.91;5094637;28;20021;-45
2024/04/08 03:05:16;;;;;;;8.82;2.55;;;;;;;20.68;37.77;98200.69;5093184;28;20053;-45
2024/04/08 03:07:42;;;;;;;13.23;2.17;;;;;;;20.80;37.03;98195.00;5093502;28;20024;-45
2024/04/08 03:10:08;;;;;;;13.20;3.38;;;;;;;20.67;37.23;98185.78;5094465;28;20119;-45
2024/04/08 03:12:33;;;;;;;9.10;1.95;;;;;;;20.66;36.82;98187.63;5093085;28;20024;-46
2024/04/08 03:14:59;;;;;;;6.40;2.10;;;;;;;20.59;37.13;98181.81;5094430;28;20494;-46
2024/04/08 03:17:24;;;;;;;10.65;1.63;;;;;;;20.64;37.01;98186.31;5094284;28;20486;-45
2024/04/08 03:19:58;;;;;;;9.93;1.83;;;;;;;20.51;36.63;98185.84;5093230;28;20131;-45
2024/04/08 03:22:24;;;;;;;6.57;2.13;;;;;;;20.45;36.51;98186.16;5094087;28;20016;-46
2024/04/08 03:24:50;;;;;;;11.70;1.98;;;;;;;20.47;36.92;98184.03;5094239;28;20020;-46
2024/04/08 03:27:15;;;;;;;7.25;1.88;;;;;;;20.58;36.29;98177.53;5094121;28;20498;-46
2024/04/08 03:29:41;;;;;;;7.50;1.92;;;;;;;20.59;36.45;98173.81;5093051;28;20032;-46
2024/04/08 03:32:07;;;;;;;7.45;2.13;;;;;;;20.67;36.49;98180.44;5092991;28;20102;-45
2024/04/08 03:34:34;;;;;;;5.78;1.63;;;;;;;20.71;36.30;98184.16;5092675;28;20020;-46
2024/04/08 03:37:00;;;;;;;7.43;1.92;;;;;;;20.70;36.22;98188.66;5093903;28;20067;-45
2024/04/08 03:39:25;;;;;;;8.48;1.52;;;;;;;20.61;36.04;98181.56;5093808;28;20048;-45
2024/04/08 03:41:53;;;;;;;11.63;2.10;;;;;;;20.50;36.42;98181.59;5093946;28;20050;-45
2024/04/08 03:44:19;;;;;;;6.13;1.50;;;;;;;20.42;36.76;98179.50;5094148;28;20020;-46
2024/04/08 03:46:45;;;;;;;13.50;2.88;;;;;;;20.40;36.73;98176.31;5093719;28;20024;-45
2024/04/08 03:49:10;;;;;;;7.38;1.60;;;;;;;20.40;36.75;98165.66;5092732;28;20032;-45
2024/04/08 03:51:36;;;;;;;10.13;1.75;;;;;;;20.58;36.82;98171.41;5092427;28;20071;-45
2024/04/08 03:54:03;;;;;;;12.35;2.10;;;;;;;20.69;36.77;98171.09;5093619;28;20027;-46
2024/04/08 03:56:28;;;;;;;9.10;2.08;;;;;;;20.86;36.81;98164.53;5093896;28;20024;-46
2024/04/08 03:58:54;;;;;;;7.35;2.47;;;;;;;20.91;36.76;98165.31;5093541;28;20106;-45
2024/04/08 04:01:20;;;;;;;8.35;2.45;;;;;;;20.92;36.33;98164.22;5093490;28;20023;-45
2024/04/08 04:03:46;;;;;;;8.93;2.03;;;;;;;20.90;36.14;98157.56;5093471;28;20099;-45
2024/04/08 04:06:12;;;;;;;12.00;2.42;;;;;;;20.79;36.40;98158.75;5092382;28;20062;-45
2024/04/08 04:08:38;;;;;;;10.48;2.20;;;;;;;20.80;36.66;98147.78;5092285;28;20055;-46
2024/04/08 04:11:04;;;;;;;7.47;1.80;;;;;;;20.85;36.59;98153.09;5093343;28;20024;-45
2024/04/08 04:13:30;;;;;;;9.43;3.45;;;;;;;20.84;36.77;98137.34;5093286;28;20016;-45
2024/04/08 04:15:55;;;;;;;12.75;6.47;;;;;;;20.83;36.65;98139.22;5093185;28;20032;-46
2024/04/08 04:18:21;;;;;;;6.55;2.97;;;;;;;20.86;36.96;98120.00;5091881;28;20390;-45
2024/04/08 04:20:47;;;;;;;8.52;2.85;;;;;;;20.97;36.68;98125.22;5091660;28;20022;-45
2024/04/08 04:23:16;;;;;;;4.72;2.03;;;;;;;21.06;36.44;98126.22;5091614;28;20048;-45
2024/04/08 04:25:42;;;;;;;13.55;2.45;;;;;;;21.08;35.89;98135.50;5092987;28;20024;-45
2024/04/08 04:28:08;;;;;;;7.38;2.35;;;;;;;21.11;36.64;98131.50;5091697;28;20035;-45
2024/04/08 04:30:33;;;;;;;8.40;2.30;;;;;;;21.22;36.28;98121.50;5091495;28;20020;-46
2024/04/08 04:33:03;;;;;;;12.77;2.65;;;;;;;21.44;36.47;98129.81;5091565;28;20032;-45
2024/04/08 04:35:28;;;;;;;11.88;3.03;;;;;;;21.63;36.30;98119.19;5093065;28;20386;-45
2024/04/08 04:37:54;;;;;;;9.07;1.60;;;;;;;21.77;35.16;98127.28;5091527;28;20036;-45
2024/04/08 04:40:20;;;;;;;10.85;2.47;;;;;;;21.83;35.19;98117.31;5091240;28;20555;-45
2024/04/08 04:42:46;;;;;;;12.75;2.63;;;;;;;21.86;35.41;98124.78;5092688;28;20040;-45
2024/04/08 04:45:12;;;;;;;13.52;2.88;;;;;;;21.94;36.04;98119.56;5091329;28;20031;-45
2024/04/08 04:47:38;;;;;;;13.90;3.60;;;;;;;21.97;35.49;98126.19;5074764;28;20025;-46
2024/04/08 04:50:05;;;;;;;19.85;5.28;;;;;;;22.04;35.75;98115.19;5092607;28;20529;-45
2024/04/08 04:52:30;;;;;;;14.38;3.17;;;;;;;22.07;34.61;98107.38;5091221;28;20455;-45
2024/04/08 04:54:57;;;;;;;12.38;2.95;;;;;;;21.92;35.36;98118.28;5091531;28;20020;-45
2024/04/08 04:57:23;;;;;;;12.65;3.60;;;;;;;21.93;35.58;98112.66;5091367;28;20035;-45
2024/04/08 04:59:49;;;;;;;11.55;2.63;;;;;;;21.99;35.86;98101.88;5092372;28;20157;-45
2024/04/08 05:02:15;;;;;;;9.80;3.33;;;;;;;22.09;35.59;98099.06;5092281;28;20103;-45
2024/04/08 05:04:41;;;;;;;9.85;2.25;;;;;;;22.16;35.27;98102.16;5090986;28;20107;-46
2024/04/08 05:07:07;;;;;;;10.23;2.30;;;;;;;22.06;34.90;98102.31;5092361;28;20028;-46
2024/04/08 05:09:32;;;;;;;10.77;3.03;;;;;;;21.99;35.06;98116.03;5091266;28;20049;-45
2024/04/08 05:11:58;;;;;;;11.90;3.60;;;;;;;22.04;35.02;98113.28;5090861;28;20483;-45
2024/04/08 05:14:24;;;;;;;10.60;5.68;;;;;;;22.11;35.70;98123.59;5091178;28;20024;-46
2024/04/08 05:16:50;;;;;;;12.88;3.47;;;;;;;22.17;35.08;98124.34;5092126;28;20028;-46
2024/04/08 05:19:16;;;;;;;10.75;4.20;;;;;;;22.12;35.43;98112.63;5090671;28;20054;-45
2024/04/08 05:21:43;;;;;;;13.88;3.03;;;;;;;22.13;35.12;98102.72;5092363;28;20032;-45
2024/04/08 05:24:09;;;;;;;7.95;2.92;;;;;;;22.18;34.79;98105.34;5091888;28;20052;-45
2024/04/08 05:26:35;;;;;;;15.23;2.97;;;;;;;22.19;34.99;98087.41;5091933;28;20016;-46
2024/04/08 05:29:01;;;;;;;13.63;3.08;;;;;;;22.23;34.77;98086.53;5092018;28;20043;-46
2024/04/08 05:31:27;;;;;;;8.35;3.00;;;;;;;22.17;34.63;98081.56;5092225;28;20016;-46
2024/04/08 05:33:53;;;;;;;11.63;2.35;;;;;;;22.05;34.60;98085.47;5091926;28;20024;-45
2024/04/08 05:36:18;;;;;;;9.43;2.83;;;;;;;22.03;33.88;98079.63;5091856;28;20059;-45
2024/04/08 05:38:44;;;;;;;13.05;5.65;;;;;;;22.02;33.54;98096.75;5090816;28;20020;-45
2024/04/08 05:41:10;;;;;;;9.55;2.67;;;;;;;21.97;33.24;98088.78;5090747;28;20504;-45
2024/04/08 05:43:35;;;;;;;11.38;2.92;;;;;;;21.99;32.80;98096.53;5089931;28;20528;-46
2024/04/08 05:46:01;;;;;;;9.02;2.53;;;;;;;22.00;33.92;98098.91;5092065;28;20028;-45
2024/04/08 05:48:27;;;;;;;8.85;2.55;;;;;;;22.05;33.75;98098.81;5090760;28;20028;-45
2024/04/08 05:50:52;;;;;;;9.13;5.00;;;;;;;22.18;32.90;98089.31;5091762;28;20032;-45
2024/04/08 05:53:18;;;;;;;15.18;4.03;;;;;;;22.28;32.58;98093.72;5090423;28;20040;-45
2024/04/08 05:55:44;;;;;;;8.48;2.38;;;;;;;22.26;32.71;98096.69;5090702;28;20025;-45
2024/04/08 05:58:10;;;;;;;7.57;2.00;;;;;;;22.24;31.93;98104.22;5091685;28;20081;-46
2024/04/08 06:00:36;;;;;;;9.90;2.50;;;;;;;22.25;31.64;98107.66;5090528;28;20025;-45
2024/04/08 06:03:06;;;;;;;8.20;1.83;;;;;;;22.32;31.38;98084.81;5091914;28;20440;-45
2024/04/08 06:05:33;;;;;;;9.75;4.32;;;;;;;22.42;31.18;98094.56;5091569;28;20023;-45
2024/04/08 06:07:59;;;;;;;11.20;3.78;;;;;;;22.48;30.44;98090.72;5090594;28;20028;-46
2024/04/08 06:10:34;;;;;;;8.10;3.03;;;;;;;22.59;30.60;98094.00;5091524;28;20031;-46
2024/04/08 06:12:59;;;;;;;8.40;3.05;;;;;;;22.74;31.13;98074.25;5091655;28;20036;-45
2024/04/08 06:15:25;;;;;;;6.65;1.88;;;;;;;23.01;30.68;98075.34;5091557;28;20514;-46
2024/04/08 06:17:51;;;;;;;5.82;2.10;;;;;;;23.12;30.23;98084.81;5091498;28;20040;-46
2024/04/08 06:20:17;;;;;;;8.20;2.17;;;;;;;23.07;30.17;98079.56;5090384;28;20027;-46
2024/04/08 06:22:44;;;;;;;10.45;2.22;;;;;;;23.14;30.08;98077.28;5089980;28;20387;-46
2024/04/08 06:25:10;;;;;;;8.73;2.50;;;;;;;23.27;29.80;98081.81;5073617;28;20039;-45
2024/04/08 06:27:36;;;;;;;6.57;1.50;;;;;;;23.52;29.25;98069.81;5091380;28;20024;-45
2024/04/08 06:30:03;;;;;;;7.30;1.58;;;;;;;23.67;28.90;98075.94;5090048;28;20058;-45
2024/04/08 06:32:29;;;;;;;7.18;1.55;;;;;;;23.81;28.76;98062.53;5091310;28;20063;-45
2024/04/08 06:34:55;;;;;;;4.35;1.80;;;;;;;23.92;28.85;98048.59;5090118;28;20032;-45
2024/04/08 06:37:21;;;;;;;10.02;2.95;;;;;;;23.95;28.34;98041.84;5091330;28;20494;-45
2024/04/08 06:39:46;;;;;;;6.60;1.85;;;;;;;23.95;28.43;98047.19;5073436;28;20409;-45
2024/04/08 06:42:17;;;;;;;6.88;1.60;;;;;;;23.85;28.31;98058.94;5091570;28;20031;-45
2024/04/08 06:44:52;;;;;;;13.32;5.20;;;;;;;23.75;28.66;98058.34;5091203;28;20032;-45
2024/04/08 06:47:19;;;;;;;7.85;2.83;;;;;;;23.72;28.32;98044.47;5091171;28;20103;-46
2024/04/08 06:49:46;;;;;;;10.75;2.53;;;;;;;23.92;28.09;98061.19;5091246;28;20028;-45
2024/04/08 06:52:12;;;;;;;7.72;1.60;;;;;;;24.17;27.57;98053.66;5091131;28;20028;-46
2024/04/08 06:54:38;;;;;;;13.13;2.10;;;;;;;24.33;27.57;98063.69;5091934;28;20093;-46
2024/04/08 06:57:04;;;;;;;9.90;1.73;;;;;;;24.64;26.55;98051.44;5094844;28;20024;-46
2024/04/08 06:59:30;;;;;;;10.88;1.92;;;;;;;25.01;27.11;98052.06;5093673;28;20031;-46
2024/04/08 07:01:56;;;;;;;10.15;1.90;;;;;;;25.55;26.33;98052.69;5094724;28;20490;-46
2024/04/08 07:04:22;;;;;;;5.95;1.80;;;;;;;25.76;26.14;98044.81;5094999;28;20032;-46
2024/04/08 07:06:48;;;;;;;11.73;3.10;;;;;;;25.59;26.30;98055.53;5094627;28;20016;-45
2024/04/08 07:09:14;;;;;;;14.98;2.63;;;;;;;25.48;26.43;98057.75;5094630;28;20028;-46
2024/04/08 07:11:39;;;;;;;22.15;3.40;;;;;;;25.84;26.37;98068.22;5094503;28;20028;-46
2024/04/08 07:14:06;;;;;;;11.13;2.08;;;;;;;26.13;25.53;98047.19;5093479;28;20035;-46
2024/04/08 07:16:32;;;;;;;12.43;2.10;;;;;;;26.40;25.57;98046.03;5094389;28;20022;-46
2024/04/08 07:18:58;;;;;;;18.02;2.15;;;;;;;26.48;24.64;98054.09;5094355;28;20494;-46
2024/04/08 07:21:24;;;;;;;24.10;3.35;;;;;;;26.48;25.32;98059.47;5094328;28;20054;-46
2024/04/08 07:23:52;;;;;;;15.15;2.30;;;;;;;26.56;25.14;98060.56;5094067;28;20040;-46
2024/04/08 07:26:18;;;;;;;64.82;6.60;;;;;;;26.44;25.38;98050.47;5094142;28;20478;-45
2024/04/08 07:28:44;;;;;;;11.32;2.40;;;;;;;26.22;25.09;98048.78;5093026;28;20065;-46
2024/04/08 07:31:10;;;;;;;13.82;2.58;;;;;;;26.07;25.59;98047.34;5094139;28;20036;-46
2024/04/08 07:33:36;;;;;;;3.85;1.10;;;;;;;25.97;25.36;98058.44;5094076;28;20408;-46
2024/04/08 07:36:01;;;;;;;5.60;1.65;;;;;;;25.68;25.83;98073.25;5094092;28;20027;-46
2024/04/08 07:38:27;;;;;;;6.53;1.83;;;;;;;25.64;26.54;98087.66;5094007;28;20032;-46
2024/04/08 07:40:53;;;;;;;8.52;1.48;;;;;;;25.73;26.00;98079.59;5093860;28;20069;-46
2024/04/08 07:43:19;;;;;;;7.05;1.80;;;;;;;25.41;25.28;98095.03;5093954;28;20103;-46
2024/04/08 07:45:44;;;;;;;10.18;1.80;;;;;;;25.09;26.28;98083.50;5093866;28;20069;-46
2024/04/08 07:48:10;;;;;;;7.57;1.40;;;;;;;25.09;25.89;98080.81;5093839;28;20103;-45
2024/04/08 07:50:38;;;;;;;9.65;1.88;;;;;;;25.12;26.05;98090.97;5092443;28;20465;-46
2024/04/08 07:53:04;;;;;;;5.43;1.35;;;;;;;25.32;25.84;98086.94;5093743;28;20020;-46
2024/04/08 07:55:30;;;;;;;7.82;1.30;;;;;;;25.56;25.77;98075.00;5092318;28;20032;-45
2024/04/08 07:57:56;;;;;;;7.93;1.40;;;;;;;25.67;25.83;98077.03;5092292;28;20566;-45
2024/04/08 08:00:21;;;;;;;6.80;2.03;;;;;;;25.70;25.29;98060.31;5093527;28;20028;-46
2024/04/08 08:02:47;;;;;;;8.75;1.70;;;;;;;25.47;25.66;98072.28;5092223;28;20115;-45
2024/04/08 08:05:13;;;;;;;5.32;1.52;;;;;;;25.37;25.51;98067.19;5093050;28;20425;-46
2024/04/08 08:07:39;;;;;;;6.75;1.50;;;;;;;25.63;25.68;98059.19;5093464;28;20044;-46
2024/04/08 08:10:06;;;;;;;8.32;1.50;;;;;;;26.00;25.26;98078.53;5093366;28;20106;-46
2024/04/08 08:12:31;;;;;;;11.35;1.90;;;;;;;26.30;25.22;98069.47;5092206;28;20016;-46
2024/04/08 08:14:57;;;;;;;7.93;1.85;;;;;;;26.93;24.19;98074.41;5093238;28;20027;-46
2024/04/08 08:17:26;;;;;;;10.60;1.88;;;;;;;27.44;23.42;98082.56;5093215;28;20016;-46
2024/04/08 08:19:52;;;;;;;6.97;1.55;;;;;;;27.65;22.53;98072.59;5091830;28;20028;-46
2024/04/08 08:22:18;;;;;;;10.60;1.88;;;;;;;27.60;22.73;98093.56;5092859;28;20016;-47
2024/04/08 08:24:44;;;;;;;5.97;1.42;;;;;;;27.43;22.42;98089.09;5093188;28;20031;-46
2024/04/08 08:27:10;;;;;;;9.32;1.58;;;;;;;26.95;23.50;98104.50;5093071;28;20074;-46
2024/04/08 08:29:36;;;;;;;8.00;1.90;;;;;;;26.58;23.41;98093.38;5093016;28;20064;-46
2024/04/08 08:32:01;;;;;;;15.18;2.17;;;;;;;25.96;24.23;98094.50;5092991;28;20032;-46
2024/04/08 08:34:27;;;;;;;9.00;2.08;;;;;;;25.31;25.04;98096.09;5091599;28;20462;-46
2024/04/08 08:36:53;;;;;;;7.55;1.90;;;;;;;25.03;24.98;98095.50;5091558;28;20035;-45
2024/04/08 08:39:19;;;;;;;7.93;1.75;;;;;;;24.78;25.56;98096.97;5092711;28;20024;-45
2024/04/08 08:41:51;;;;;;;6.03;1.25;;;;;;;24.50;25.51;98119.38;5092770;28;20432;-45
2024/04/08 08:44:20;;;;;;;10.00;1.75;;;;;;;24.30;25.71;98103.75;5092757;28;20020;-45
2024/04/08 08:46:46;;;;;;;9.77;2.80;;;;;;;24.31;25.71;98103.44;5092744;28;20036;-45
2024/04/08 08:49:15;;;;;;;11.10;2.00;;;;;;;24.51;25.99;98102.19;5091386;28;20055;-45
2024/04/08 08:51:40;;;;;;;12.93;2.08;;;;;;;25.07;24.65;98099.13;5092658;28;20035;-46
2024/04/08 08:54:07;;;;;;;11.57;1.98;;;;;;;25.43;24.63;98109.72;5092552;28;20012;-46
2024/04/08 08:56:33;;;;;;;17.27;2.00;;;;;;;25.49;24.80;98107.69;5091470;28;20028;-45
2024/04/08 08:59:02;;;;;;;9.85;2.10;;;;;;;25.26;26.18;98107.00;5091227;28;20016;-46
2024/04/08 09:01:30;;;;;;;6.65;1.40;;;;;;;24.76;24.63;98108.00;5091208;28;20031;-46
2024/04/08 09:03:57;;;;;;;6.65;1.75;;;;;;;24.64;25.04;98113.94;5092650;28;20405;-45
2024/04/08 09:06:23;;;;;;;9.65;2.30;;;;;;;24.41;25.04;98107.78;5092359;28;20073;-45
2024/04/08 09:08:49;;;;;;;14.25;1.60;;;;;;;24.16;25.60;98132.50;5091249;28;20035;-45
2024/04/08 09:11:16;;;;;;;13.68;2.42;;;;;;;23.99;25.47;98103.69;5091223;28;20036;-46
2024/04/08 09:13:42;;;;;;;13.30;3.20;;;;;;;23.83;26.39;98095.19;5092284;28;20034;-45
2024/04/08 09:16:08;;;;;;;14.52;3.13;;;;;;;23.74;26.37;98105.78;5092197;28;20517;-45
2024/04/08 09:18:34;;;;;;;6.25;1.42;;;;;;;23.83;25.79;98104.00;5091485;28;20504;-45
2024/04/08 09:21:00;;;;;;;11.40;1.98;;;;;;;23.89;25.79;98121.56;5092071;28;20024;-45
2024/04/08 09:23:26;;;;;;;10.68;2.30;;;;;;;23.90;25.94;98108.94;5091741;28;20528;-46
2024/04/08 09:25:52;;;;;;;10.98;1.98;;;;;;;23.96;26.12;98129.16;5092373;28;20026;-45
2024/04/08 09:28:18;;;;;;;11.95;2.53;;;;;;;24.25;26.16;98119.97;5090756;28;20068;-46
2024/04/08 09:30:44;;;;;;;7.75;1.80;;;;;;;24.57;25.84;98112.78;5090665;28;20054;-45
2024/04/08 09:33:13;;;;;;;7.45;1.40;;;;;;;24.69;24.87;98137.97;5092015;28;20032;-46
2024/04/08 09:35:41;;;;;;;10.73;2.75;;;;;;;24.57;25.63;98143.09;5091886;28;20016;-46
2024/04/08 09:38:09;;;;;;;14.88;2.65;;;;;;;24.77;26.10;98123.03;5091910;28;20024;-46
2024/04/08 09:40:37;;;;;;;9.15;1.85;;;;;;;24.97;25.14;98137.00;5090490;28;20107;-46
2024/04/08 09:43:03;;;;;;;9.95;2.10;;;;;;;24.99;24.80;98132.13;5092132;28;20452;-46
2024/04/08 09:45:29;;;;;;;5.20;1.45;;;;;;;24.80;25.33;98133.13;5091815;28;20498;-46
2024/04/08 09:47:55;;;;;;;9.80;1.92;;;;;;;24.69;26.81;98135.28;5091906;28;20035;-45
2024/04/08 09:50:23;;;;;;;7.60;1.98;;;;;;;24.71;26.13;98124.25;5091762;28;20119;-46
2024/04/08 09:52:49;;;;;;;9.50;1.77;;;;;;;24.82;25.26;98138.19;5090481;28;20020;-46
2024/04/08 09:55:15;;;;;;;3.55;2.03;;;;;;;24.65;26.11;98141.56;5090653;28;20116;-46
2024/04/08 09:57:44;;;;;;;7.38;2.05;;;;;;;24.69;25.87;98113.81;5090445;28;20024;-46
2024/04/08 10:00:18;;;;;;;11.95;3.40;;;;;;;24.66;25.92;98121.69;5091875;28;20381;-46
2024/04/08 10:02:46;;;;;;;14.60;5.00;;;;;;;24.61;26.23;98111.88;5090705;28;20028;-45
2024/04/08 10:05:16;;;;;;;11.85;1.98;;;;;;;24.83;26.05;98119.09;5090276;28;20035;-46
2024/04/08 10:07:43;;;;;;;5.38;1.63;;;;;;;25.18;25.60;98108.50;5091630;28;20027;-46
2024/04/08 10:10:12;;;;;;;4.63;1.55;;;;;;;25.54;25.50;98099.47;5091636;28;20043;-46
2024/04/08 10:12:40;;;;;;;5.00;1.90;;;;;;;25.94;24.73;98112.84;5091640;28;20093;-46
2024/04/08 10:15:13;;;;;;;9.77;1.80;;;;;;;26.41;24.31;98104.13;5091556;28;20036;-46
2024/04/08 10:17:44;;;;;;;11.20;2.60;;;;;;;26.81;23.28;98114.69;5090356;28;20020;-46
2024/04/08 10:20:14;;;;;;;11.35;1.90;;;;;;;26.85;23.50;98115.63;5091452;28;20068;-46
2024/04/08 10:22:40;;;;;;;6.13;1.58;;;;;;;26.95;24.16;98109.09;5091313;28;20032;-46
2024/04/08 10:25:38;;;;;;;6.55;1.60;;;;;;;26.93;23.54;98109.41;5091524;28;20039;-46
2024/04/08 10:28:06;;;;;;;5.82;1.45;;;;;;;26.70;23.93;98103.44;5090170;28;20528;-46
2024/04/08 10:30:33;;;;;;;4.13;1.17;;;;;;;26.56;23.31;98110.91;5094002;28;20122;-46
2024/04/08 10:33:00;;;;;;;11.85;2.90;;;;;;;26.56;24.29;98114.41;5095517;28;20024;-46
2024/04/08 10:35:26;;;;;;;13.70;1.90;;;;;;;26.76;23.98;98104.06;5095253;28;20130;-46
2024/04/08 10:37:51;;;;;;;20.50;5.60;;;;;;;27.04;23.78;98102.53;5095241;28;20099;-46
2024/04/08 10:40:21;;;;;;;12.13;4.28;;;;;;;27.42;22.87;98061.34;5095017;28;20024;-46
2024/04/08 10:42:47;;;;;;;19.60;10.50;;;;;;;27.99;23.27;98062.72;5095121;28;20016;-46
2024/04/08 10:45:13;;;;;;;14.15;12.75;;;;;;;28.70;21.72;98066.31;5093652;28;20035;-46
2024/04/08 10:47:39;;;;;;;6.88;3.30;;;;;;;29.09;21.89;98064.84;5093799;28;20012;-46
2024/04/08 10:50:09;;;;;;;11.55;3.92;;;;;;;28.95;21.35;98037.41;5093721;28;20055;-46
2024/04/08 10:52:39;;;;;;;6.63;2.47;;;;;;;28.81;21.79;98008.00;5094983;28;20099;-46
2024/04/08 10:55:05;;;;;;;5.15;2.53;;;;;;;28.79;21.33;98026.47;5094840;28;20108;-46
2024/04/08 10:57:30;;;;;;;5.72;1.42;;;;;;;28.99;21.82;98045.63;5095117;28;20107;-46
2024/04/08 10:59:56;;;;;;;4.07;1.17;;;;;;;29.02;21.63;98023.34;5095005;28;20028;-46
2024/04/08 11:02:22;;;;;;;7.65;1.38;;;;;;;29.21;21.57;98041.69;5093399;28;20017;-46
2024/04/08 11:04:48;;;;;;;5.72;1.60;;;;;;;29.33;21.47;98019.28;5094692;28;20089;-46
2024/04/08 11:07:14;;;;;;;5.75;1.55;;;;;;;29.18;21.48;98026.97;5094611;28;20055;-46
2024/04/08 11:09:40;;;;;;;4.20;1.40;;;;;;;28.90;21.12;98009.84;5094651;28;20020;-46
2024/04/08 11:12:06;;;;;;;6.47;1.23;;;;;;;28.59;21.56;98011.16;5094547;28;20700;-46
2024/04/08 11:14:32;;;;;;;7.30;1.60;;;;;;;28.41;21.48;98018.63;5094534;28;20023;-46
2024/04/08 11:17:05;;;;;;;7.65;1.40;;;;;;;28.20;22.27;98011.41;5094442;28;20024;-46
2024/04/08 11:19:31;;;;;;;7.05;1.70;;;;;;;28.72;22.31;97982.28;5094406;28;20401;-46
2024/04/08 11:21:57;;;;;;;9.27;1.80;;;;;;;29.79;21.84;98000.94;5093045;28;20464;-46
2024/04/08 11:24:24;;;;;;;11.98;1.80;;;;;;;31.18;19.98;98000.16;5094079;28;20048;-46
2024/04/08 11:26:50;;;;;;;5.32;1.75;;;;;;;31.91;18.46;98017.56;5094498;28;20032;-47